sensor_id;sensor_type;location;lat;lon;timestamp;pressure;altitude;pressure_sealevel;temperature;humidity
74716;BME280;63234;37.558;127.058;2022-10-01T00:01:17;101729.09;;;23.70;48.11
74716;BME280;63234;37.558;127.058;2022-10-01T00:03:45;101726.91;;;24.34;46.46
74716;BME280;63234;37.558;127.058;2022-10-01T00:06:14;101720.09;;;24.57;45.80
74716;BME280;63234;37.558;127.058;2022-10-01T00:08:43;101719.03;;;25.62;43.13
74716;BME280;63234;37.558;127.058;2022-10-01T00:11:22;101733.63;;;27.68;39.50
74716;BME280;63234;37.558;127.058;2022-10-01T00:13:50;101733.94;;;27.29;39.72
74716;BME280;63234;37.558;127.058;2022-10-01T00:16:21;101727.84;;;26.94;40.44
74716;BME280;63234;37.558;127.058;2022-10-01T00:18:49;101745.38;;;27.69;38.88
74716;BME280;63234;37.558;127.058;2022-10-01T00:21:25;101746.44;;;28.80;36.95
74716;BME280;63234;37.558;127.058;2022-10-01T00:24:03;101745.41;;;25.72;42.74
74716;BME280;63234;37.558;127.058;2022-10-01T00:26:33;101741.66;;;27.03;40.35
74716;BME280;63234;37.558;127.058;2022-10-01T00:29:03;101745.72;;;27.06;40.04
74716;BME280;63234;37.558;127.058;2022-10-01T00:31:31;101740.75;;;27.51;39.33
74716;BME280;63234;37.558;127.058;2022-10-01T00:34:00;101743.56;;;27.64;39.80
74716;BME280;63234;37.558;127.058;2022-10-01T00:36:33;101741.94;;;27.82;40.00
74716;BME280;63234;37.558;127.058;2022-10-01T00:39:00;101748.63;;;27.90;38.96
74716;BME280;63234;37.558;127.058;2022-10-01T00:41:30;101750.16;;;26.77;41.20
74716;BME280;63234;37.558;127.058;2022-10-01T00:44:00;101747.97;;;26.80;41.56
74716;BME280;63234;37.558;127.058;2022-10-01T00:49:14;101745.75;;;28.47;38.30
74716;BME280;63234;37.558;127.058;2022-10-01T00:51:48;101754.59;;;28.39;37.91
74716;BME280;63234;37.558;127.058;2022-10-01T00:54:20;101759.16;;;27.97;38.80
74716;BME280;63234;37.558;127.058;2022-10-01T00:56:50;101764.69;;;28.98;36.91
74716;BME280;63234;37.558;127.058;2022-10-01T00:59:19;101757.69;;;29.06;37.06
74716;BME280;63234;37.558;127.058;2022-10-01T01:01:46;101759.72;;;29.00;36.73
74716;BME280;63234;37.558;127.058;2022-10-01T01:04:13;101768.44;;;28.47;37.80
74716;BME280;63234;37.558;127.058;2022-10-01T01:07:03;101761.28;;;28.32;38.04
74716;BME280;63234;37.558;127.058;2022-10-01T01:09:33;101751.78;;;25.96;42.71
74716;BME280;63234;37.558;127.058;2022-10-01T01:17:50;101748.47;;;26.28;42.49
74716;BME280;63234;37.558;127.058;2022-10-01T01:25:48;101759.22;;;27.21;40.68
74716;BME280;63234;37.558;127.058;2022-10-01T01:30:54;101753.97;;;28.14;39.08
74716;BME280;63234;37.558;127.058;2022-10-01T01:33:24;101747.19;;;29.72;36.04
74716;BME280;63234;37.558;127.058;2022-10-01T01:36:01;101740.03;;;30.16;34.79
74716;BME280;63234;37.558;127.058;2022-10-01T01:38:33;101742.00;;;29.93;35.18
74716;BME280;63234;37.558;127.058;2022-10-01T01:41:05;101730.56;;;29.68;36.07
74716;BME280;63234;37.558;127.058;2022-10-01T01:43:37;101732.59;;;29.26;36.16
74716;BME280;63234;37.558;127.058;2022-10-01T01:46:07;101724.22;;;30.44;34.83
74716;BME280;63234;37.558;127.058;2022-10-01T01:48:37;101725.06;;;29.32;36.60
74716;BME280;63234;37.558;127.058;2022-10-01T01:51:16;101722.47;;;31.40;33.01
74716;BME280;63234;37.558;127.058;2022-10-01T01:53:44;101716.88;;;30.31;34.63
74716;BME280;63234;37.558;127.058;2022-10-01T01:56:11;101716.09;;;28.90;37.08
74716;BME280;63234;37.558;127.058;2022-10-01T01:58:38;101716.28;;;30.11;34.52
74716;BME280;63234;37.558;127.058;2022-10-01T02:01:05;101707.41;;;29.38;35.68
74716;BME280;63234;37.558;127.058;2022-10-01T02:03:33;101705.97;;;30.48;33.80
74716;BME280;63234;37.558;127.058;2022-10-01T02:11:26;101682.91;;;30.58;33.54
74716;BME280;63234;37.558;127.058;2022-10-01T02:22:21;101674.19;;;32.42;29.13
74716;BME280;63234;37.558;127.058;2022-10-01T02:24:56;101668.44;;;31.70;29.75
74716;BME280;63234;37.558;127.058;2022-10-01T02:27:29;101662.38;;;32.41;28.81
74716;BME280;63234;37.558;127.058;2022-10-01T02:30:03;101661.44;;;33.30;27.86
74716;BME280;63234;37.558;127.058;2022-10-01T02:32:37;101661.59;;;33.91;27.11
74716;BME280;63234;37.558;127.058;2022-10-01T02:35:07;101657.72;;;34.05;27.48
74716;BME280;63234;37.558;127.058;2022-10-01T02:37:37;101662.13;;;31.70;29.31
74716;BME280;63234;37.558;127.058;2022-10-01T02:40:07;101651.13;;;30.66;32.49
74716;BME280;63234;37.558;127.058;2022-10-01T02:42:38;101646.81;;;31.17;30.89
74716;BME280;63234;37.558;127.058;2022-10-01T02:45:08;101644.06;;;29.17;32.86
74716;BME280;63234;37.558;127.058;2022-10-01T02:47:43;101636.63;;;31.00;30.25
74716;BME280;63234;37.558;127.058;2022-10-01T02:50:13;101623.84;;;32.03;28.29
74716;BME280;63234;37.558;127.058;2022-10-01T02:53:06;101625.41;;;32.51;26.09
74716;BME280;63234;37.558;127.058;2022-10-01T02:55:36;101622.34;;;29.43;30.20
74716;BME280;63234;37.558;127.058;2022-10-01T02:58:04;101624.69;;;28.36;32.68
74716;BME280;63234;37.558;127.058;2022-10-01T03:00:33;101620.41;;;30.37;29.19
74716;BME280;63234;37.558;127.058;2022-10-01T03:03:00;101621.50;;;31.75;26.93
74716;BME280;63234;37.558;127.058;2022-10-01T03:05:26;101616.34;;;33.13;25.36
74716;BME280;63234;37.558;127.058;2022-10-01T03:07:53;101612.41;;;31.92;26.94
74716;BME280;63234;37.558;127.058;2022-10-01T03:10:20;101615.13;;;31.28;27.19
74716;BME280;63234;37.558;127.058;2022-10-01T03:12:47;101601.34;;;32.01;22.29
74716;BME280;63234;37.558;127.058;2022-10-01T03:15:18;101608.03;;;33.47;21.92
74716;BME280;63234;37.558;127.058;2022-10-01T03:17:49;101600.22;;;33.82;20.65
74716;BME280;63234;37.558;127.058;2022-10-01T03:20:16;101604.31;;;33.51;21.80
74716;BME280;63234;37.558;127.058;2022-10-01T03:22:46;101605.50;;;34.48;19.39
74716;BME280;63234;37.558;127.058;2022-10-01T03:25:14;101603.69;;;32.50;18.99
74716;BME280;63234;37.558;127.058;2022-10-01T03:27:42;101595.88;;;30.41;23.54
74716;BME280;63234;37.558;127.058;2022-10-01T03:30:10;101587.06;;;31.69;24.98
74716;BME280;63234;37.558;127.058;2022-10-01T03:32:37;101589.41;;;32.27;25.91
74716;BME280;63234;37.558;127.058;2022-10-01T03:35:04;101587.78;;;32.76;25.36
74716;BME280;63234;37.558;127.058;2022-10-01T03:37:31;101587.16;;;33.12;23.39
74716;BME280;63234;37.558;127.058;2022-10-01T03:39:58;101578.63;;;33.39;24.44
74716;BME280;63234;37.558;127.058;2022-10-01T03:42:25;101581.28;;;33.47;24.79
74716;BME280;63234;37.558;127.058;2022-10-01T03:44:52;101587.38;;;32.65;26.78
74716;BME280;63234;37.558;127.058;2022-10-01T03:47:24;101578.94;;;33.70;25.17
74716;BME280;63234;37.558;127.058;2022-10-01T03:50:02;101584.50;;;32.62;26.00
74716;BME280;63234;37.558;127.058;2022-10-01T03:52:34;101569.31;;;33.31;25.05
74716;BME280;63234;37.558;127.058;2022-10-01T03:55:01;101578.25;;;33.73;25.04
74716;BME280;63234;37.558;127.058;2022-10-01T03:57:28;101564.44;;;33.73;25.20
74716;BME280;63234;37.558;127.058;2022-10-01T03:59:55;101561.72;;;33.28;25.05
74716;BME280;63234;37.558;127.058;2022-10-01T04:02:22;101550.03;;;33.43;24.94
74716;BME280;63234;37.558;127.058;2022-10-01T04:04:49;101549.00;;;32.39;23.57
74716;BME280;63234;37.558;127.058;2022-10-01T04:07:16;101549.19;;;33.18;22.42
74716;BME280;63234;37.558;127.058;2022-10-01T04:09:43;101546.41;;;33.64;22.95
74716;BME280;63234;37.558;127.058;2022-10-01T04:12:09;101545.25;;;33.89;22.42
74716;BME280;63234;37.558;127.058;2022-10-01T04:14:36;101538.63;;;32.87;23.62
74716;BME280;63234;37.558;127.058;2022-10-01T04:17:03;101540.91;;;31.84;27.26
74716;BME280;63234;37.558;127.058;2022-10-01T04:19:30;101538.09;;;31.63;26.05
74716;BME280;63234;37.558;127.058;2022-10-01T04:21:57;101535.31;;;31.07;27.51
74716;BME280;63234;37.558;127.058;2022-10-01T04:24:24;101524.03;;;30.65;28.83
74716;BME280;63234;37.558;127.058;2022-10-01T04:26:51;101523.19;;;29.41;31.09
74716;BME280;63234;37.558;127.058;2022-10-01T04:29:18;101523.22;;;28.96;30.71
74716;BME280;63234;37.558;127.058;2022-10-01T04:31:45;101515.66;;;27.93;32.54
74716;BME280;63234;37.558;127.058;2022-10-01T04:34:12;101511.50;;;28.09;32.70
74716;BME280;63234;37.558;127.058;2022-10-01T04:36:39;101508.06;;;29.13;31.01
74716;BME280;63234;37.558;127.058;2022-10-01T04:39:05;101502.25;;;29.14;29.76
74716;BME280;63234;37.558;127.058;2022-10-01T04:41:33;101497.19;;;29.30;29.41
74716;BME280;63234;37.558;127.058;2022-10-01T04:44:00;101500.19;;;29.20;29.32
74716;BME280;63234;37.558;127.058;2022-10-01T04:46:28;101499.88;;;28.54;30.49
74716;BME280;63234;37.558;127.058;2022-10-01T04:48:55;101495.97;;;28.69;29.57
74716;BME280;63234;37.558;127.058;2022-10-01T04:51:22;101492.50;;;28.77;30.23
74716;BME280;63234;37.558;127.058;2022-10-01T04:53:49;101493.22;;;28.69;30.23
74716;BME280;63234;37.558;127.058;2022-10-01T04:56:16;101494.34;;;29.44;29.48
74716;BME280;63234;37.558;127.058;2022-10-01T04:58:43;101497.84;;;29.67;28.75
74716;BME280;63234;37.558;127.058;2022-10-01T05:01:13;101495.28;;;29.62;26.39
74716;BME280;63234;37.558;127.058;2022-10-01T05:03:40;101483.31;;;28.81;26.09
74716;BME280;63234;37.558;127.058;2022-10-01T05:06:07;101473.50;;;29.03;26.53
74716;BME280;63234;37.558;127.058;2022-10-01T05:08:34;101471.09;;;28.56;26.50
74716;BME280;63234;37.558;127.058;2022-10-01T05:11:01;101469.94;;;28.57;25.29
74716;BME280;63234;37.558;127.058;2022-10-01T05:13:28;101463.44;;;28.67;23.64
74716;BME280;63234;37.558;127.058;2022-10-01T05:15:57;101461.56;;;28.76;24.25
74716;BME280;63234;37.558;127.058;2022-10-01T05:18:24;101462.59;;;29.12;24.13
74716;BME280;63234;37.558;127.058;2022-10-01T05:20:51;101455.19;;;29.43;23.51
74716;BME280;63234;37.558;127.058;2022-10-01T05:23:18;101466.44;;;29.64;24.01
74716;BME280;63234;37.558;127.058;2022-10-01T05:25:45;101465.22;;;29.17;25.52
74716;BME280;63234;37.558;127.058;2022-10-01T05:28:12;101454.38;;;29.12;24.90
74716;BME280;63234;37.558;127.058;2022-10-01T05:30:39;101469.22;;;29.50;24.17
74716;BME280;63234;37.558;127.058;2022-10-01T05:33:05;101461.19;;;28.92;25.41
74716;BME280;63234;37.558;127.058;2022-10-01T05:35:32;101462.06;;;28.78;26.06
74716;BME280;63234;37.558;127.058;2022-10-01T05:38:00;101464.13;;;29.26;25.12
74716;BME280;63234;37.558;127.058;2022-10-01T05:40:30;101469.50;;;29.32;25.42
74716;BME280;63234;37.558;127.058;2022-10-01T05:42:59;101472.69;;;29.34;25.96
74716;BME280;63234;37.558;127.058;2022-10-01T05:45:29;101468.63;;;29.22;25.78
74716;BME280;63234;37.558;127.058;2022-10-01T05:47:57;101470.59;;;29.62;25.48
74716;BME280;63234;37.558;127.058;2022-10-01T05:50:26;101468.72;;;29.88;25.28
74716;BME280;63234;37.558;127.058;2022-10-01T05:52:53;101467.88;;;29.79;24.85
74716;BME280;63234;37.558;127.058;2022-10-01T05:55:22;101463.28;;;29.57;25.95
74716;BME280;63234;37.558;127.058;2022-10-01T05:58:00;101460.06;;;29.55;26.51
74716;BME280;63234;37.558;127.058;2022-10-01T06:00:28;101463.53;;;28.85;27.37
74716;BME280;63234;37.558;127.058;2022-10-01T06:02:59;101455.28;;;28.53;27.86
74716;BME280;63234;37.558;127.058;2022-10-01T06:05:28;101455.78;;;28.55;27.44
74716;BME280;63234;37.558;127.058;2022-10-01T06:07:56;101461.34;;;28.14;27.23
74716;BME280;63234;37.558;127.058;2022-10-01T06:10:24;101462.06;;;28.20;27.04
74716;BME280;63234;37.558;127.058;2022-10-01T06:12:58;101457.16;;;28.44;26.60
74716;BME280;63234;37.558;127.058;2022-10-01T06:15:27;101450.13;;;28.38;26.59
74716;BME280;63234;37.558;127.058;2022-10-01T06:17:54;101454.47;;;28.17;27.53
74716;BME280;63234;37.558;127.058;2022-10-01T06:20:21;101462.50;;;27.99;28.63
74716;BME280;63234;37.558;127.058;2022-10-01T06:22:53;101457.47;;;27.79;28.88
74716;BME280;63234;37.558;127.058;2022-10-01T06:25:21;101442.06;;;27.83;29.29
74716;BME280;63234;37.558;127.058;2022-10-01T06:27:56;101444.72;;;27.88;29.11
74716;BME280;63234;37.558;127.058;2022-10-01T06:30:29;101447.06;;;28.17;28.58
74716;BME280;63234;37.558;127.058;2022-10-01T06:33:08;101443.78;;;28.29;29.33
74716;BME280;63234;37.558;127.058;2022-10-01T06:35:43;101443.44;;;28.08;29.47
74716;BME280;63234;37.558;127.058;2022-10-01T06:38:10;101438.50;;;28.32;29.12
74716;BME280;63234;37.558;127.058;2022-10-01T06:40:37;101436.69;;;28.42;29.24
74716;BME280;63234;37.558;127.058;2022-10-01T06:43:05;101439.75;;;28.26;29.15
74716;BME280;63234;37.558;127.058;2022-10-01T06:45:39;101438.84;;;28.31;28.82
74716;BME280;63234;37.558;127.058;2022-10-01T06:48:10;101434.97;;;28.32;29.66
74716;BME280;63234;37.558;127.058;2022-10-01T06:50:40;101435.25;;;28.44;29.03
74716;BME280;63234;37.558;127.058;2022-10-01T06:53:07;101439.38;;;28.55;29.02
74716;BME280;63234;37.558;127.058;2022-10-01T06:55:38;101444.38;;;28.03;29.52
74716;BME280;63234;37.558;127.058;2022-10-01T06:58:18;101442.44;;;28.04;29.52
74716;BME280;63234;37.558;127.058;2022-10-01T07:00:47;101438.13;;;27.61;30.16
74716;BME280;63234;37.558;127.058;2022-10-01T07:03:21;101439.75;;;27.49;30.76
74716;BME280;63234;37.558;127.058;2022-10-01T07:05:48;101438.34;;;27.51;30.00
74716;BME280;63234;37.558;127.058;2022-10-01T07:08:16;101436.09;;;27.53;30.16
74716;BME280;63234;37.558;127.058;2022-10-01T07:10:43;101447.41;;;27.19;30.06
74716;BME280;63234;37.558;127.058;2022-10-01T07:13:16;101442.16;;;27.36;30.08
74716;BME280;63234;37.558;127.058;2022-10-01T07:15:44;101449.44;;;27.41;30.30
74716;BME280;63234;37.558;127.058;2022-10-01T07:18:12;101449.72;;;27.26;29.48
74716;BME280;63234;37.558;127.058;2022-10-01T07:20:39;101453.47;;;27.30;29.55
74716;BME280;63234;37.558;127.058;2022-10-01T07:23:12;101457.03;;;27.11;30.13
74716;BME280;63234;37.558;127.058;2022-10-01T07:25:40;101463.47;;;26.88;31.18
74716;BME280;63234;37.558;127.058;2022-10-01T07:28:14;101449.38;;;26.99;30.49
74716;BME280;63234;37.558;127.058;2022-10-01T07:31:03;101455.28;;;26.88;31.01
74716;BME280;63234;37.558;127.058;2022-10-01T07:33:32;101452.03;;;26.86;31.07
74716;BME280;63234;37.558;127.058;2022-10-01T07:36:01;101444.13;;;26.70;31.39
74716;BME280;63234;37.558;127.058;2022-10-01T07:38:29;101448.72;;;26.89;31.97
74716;BME280;63234;37.558;127.058;2022-10-01T07:40:56;101441.91;;;26.72;32.12
74716;BME280;63234;37.558;127.058;2022-10-01T07:43:24;101447.72;;;26.66;32.18
74716;BME280;63234;37.558;127.058;2022-10-01T07:45:51;101459.41;;;26.52;32.02
74716;BME280;63234;37.558;127.058;2022-10-01T07:48:48;101469.38;;;26.38;32.30
74716;BME280;63234;37.558;127.058;2022-10-01T07:51:15;101451.19;;;26.34;32.29
74716;BME280;63234;37.558;127.058;2022-10-01T07:53:41;101450.47;;;26.28;32.68
74716;BME280;63234;37.558;127.058;2022-10-01T07:56:08;101444.25;;;26.22;33.03
74716;BME280;63234;37.558;127.058;2022-10-01T07:58:35;101449.50;;;26.38;33.04
74716;BME280;63234;37.558;127.058;2022-10-01T08:01:05;101453.94;;;26.34;32.84
74716;BME280;63234;37.558;127.058;2022-10-01T08:03:33;101447.56;;;26.38;33.32
74716;BME280;63234;37.558;127.058;2022-10-01T08:06:00;101450.78;;;26.26;34.05
74716;BME280;63234;37.558;127.058;2022-10-01T08:08:32;101444.63;;;26.16;34.53
74716;BME280;63234;37.558;127.058;2022-10-01T08:11:01;101439.84;;;26.07;34.52
74716;BME280;63234;37.558;127.058;2022-10-01T08:13:28;101447.84;;;25.99;34.66
74716;BME280;63234;37.558;127.058;2022-10-01T08:15:55;101450.72;;;25.89;34.70
74716;BME280;63234;37.558;127.058;2022-10-01T08:18:23;101455.94;;;25.85;34.36
74716;BME280;63234;37.558;127.058;2022-10-01T08:20:50;101454.94;;;25.76;34.74
74716;BME280;63234;37.558;127.058;2022-10-01T08:23:17;101460.22;;;25.67;34.92
74716;BME280;63234;37.558;127.058;2022-10-01T08:25:45;101462.47;;;25.60;35.25
74716;BME280;63234;37.558;127.058;2022-10-01T08:28:13;101470.75;;;25.50;36.37
74716;BME280;63234;37.558;127.058;2022-10-01T08:30:41;101480.94;;;25.39;38.43
74716;BME280;63234;37.558;127.058;2022-10-01T08:33:12;101457.94;;;25.26;39.15
74716;BME280;63234;37.558;127.058;2022-10-01T08:35:40;101460.47;;;25.17;40.00
74716;BME280;63234;37.558;127.058;2022-10-01T08:38:08;101457.28;;;25.05;41.32
74716;BME280;63234;37.558;127.058;2022-10-01T08:40:43;101469.13;;;24.90;41.62
74716;BME280;63234;37.558;127.058;2022-10-01T08:46:02;101473.59;;;24.71;43.11
74716;BME280;63234;37.558;127.058;2022-10-01T08:51:31;101482.09;;;24.64;44.52
74716;BME280;63234;37.558;127.058;2022-10-01T08:54:09;101486.47;;;24.60;44.69
74716;BME280;63234;37.558;127.058;2022-10-01T08:56:43;101487.03;;;24.62;43.90
74716;BME280;63234;37.558;127.058;2022-10-01T09:01:47;101517.28;;;24.51;44.92
74716;BME280;63234;37.558;127.058;2022-10-01T09:04:14;101509.13;;;24.40;45.40
74716;BME280;63234;37.558;127.058;2022-10-01T09:06:43;101507.28;;;24.31;45.77
74716;BME280;63234;37.558;127.058;2022-10-01T09:09:30;101504.09;;;24.13;46.21
74716;BME280;63234;37.558;127.058;2022-10-01T09:12:14;101515.56;;;24.00;46.65
74716;BME280;63234;37.558;127.058;2022-10-01T09:21:00;101501.28;;;23.74;46.77
74716;BME280;63234;37.558;127.058;2022-10-01T09:23:33;101499.94;;;23.56;47.73
74716;BME280;63234;37.558;127.058;2022-10-01T09:26:08;101496.16;;;23.47;47.00
74716;BME280;63234;37.558;127.058;2022-10-01T09:28:37;101506.19;;;23.41;47.44
74716;BME280;63234;37.558;127.058;2022-10-01T09:31:23;101508.09;;;23.35;46.01
74716;BME280;63234;37.558;127.058;2022-10-01T09:41:51;101484.16;;;23.58;44.41
74716;BME280;63234;37.558;127.058;2022-10-01T09:44:25;101485.28;;;23.36;44.46
74716;BME280;63234;37.558;127.058;2022-10-01T09:46:54;101490.69;;;23.52;44.07
74716;BME280;63234;37.558;127.058;2022-10-01T09:49:34;101501.88;;;23.20;44.83
74716;BME280;63234;37.558;127.058;2022-10-01T09:54:48;101526.03;;;23.11;44.92
74716;BME280;63234;37.558;127.058;2022-10-01T09:57:36;101517.88;;;23.06;44.80
74716;BME280;63234;37.558;127.058;2022-10-01T10:00:07;101515.94;;;22.91;45.45
74716;BME280;63234;37.558;127.058;2022-10-01T10:05:07;101528.97;;;22.89;45.28
74716;BME280;63234;37.558;127.058;2022-10-01T10:07:34;101535.25;;;23.15;44.42
74716;BME280;63234;37.558;127.058;2022-10-01T10:10:32;101534.41;;;22.99;44.75
74716;BME280;63234;37.558;127.058;2022-10-01T10:15:58;101536.88;;;23.26;44.01
74716;BME280;63234;37.558;127.058;2022-10-01T10:18:33;101541.75;;;23.24;44.02
74716;BME280;63234;37.558;127.058;2022-10-01T10:21:04;101539.06;;;23.19;44.32
74716;BME280;63234;37.558;127.058;2022-10-01T10:23:44;101541.22;;;23.07;44.75
74716;BME280;63234;37.558;127.058;2022-10-01T10:26:27;101531.38;;;22.85;45.18
74716;BME280;63234;37.558;127.058;2022-10-01T10:28:58;101546.84;;;22.90;45.61
74716;BME280;63234;37.558;127.058;2022-10-01T10:31:29;101545.22;;;22.79;44.99
74716;BME280;63234;37.558;127.058;2022-10-01T10:34:26;101557.66;;;22.64;45.85
74716;BME280;63234;37.558;127.058;2022-10-01T10:37:03;101565.53;;;22.66;46.11
74716;BME280;63234;37.558;127.058;2022-10-01T10:39:38;101567.97;;;22.73;45.88
74716;BME280;63234;37.558;127.058;2022-10-01T10:42:06;101563.91;;;22.65;46.32
74716;BME280;63234;37.558;127.058;2022-10-01T10:44:36;101569.34;;;22.75;45.58
74716;BME280;63234;37.558;127.058;2022-10-01T10:47:08;101568.22;;;22.66;46.12
74716;BME280;63234;37.558;127.058;2022-10-01T10:49:55;101570.69;;;22.67;45.96
74716;BME280;63234;37.558;127.058;2022-10-01T10:52:35;101570.97;;;22.76;45.78
74716;BME280;63234;37.558;127.058;2022-10-01T10:55:29;101575.84;;;22.74;45.98
74716;BME280;63234;37.558;127.058;2022-10-01T10:58:10;101581.03;;;22.86;45.92
74716;BME280;63234;37.558;127.058;2022-10-01T11:00:45;101584.28;;;22.83;45.88
74716;BME280;63234;37.558;127.058;2022-10-01T11:03:15;101583.41;;;22.62;46.57
74716;BME280;63234;37.558;127.058;2022-10-01T11:05:43;101580.41;;;22.58;46.85
74716;BME280;63234;37.558;127.058;2022-10-01T11:08:19;101579.31;;;22.49;47.33
74716;BME280;63234;37.558;127.058;2022-10-01T11:14:50;101589.59;;;22.47;47.59
74716;BME280;63234;37.558;127.058;2022-10-01T11:31:12;101600.44;;;22.47;48.36
74716;BME280;63234;37.558;127.058;2022-10-01T11:34:03;101600.97;;;22.44;48.09
74716;BME280;63234;37.558;127.058;2022-10-01T11:37:45;101597.16;;;22.40;48.49
74716;BME280;63234;37.558;127.058;2022-10-01T11:39:47;101601.72;;;22.29;48.79
74716;BME280;63234;37.558;127.058;2022-10-01T11:42:24;101597.38;;;22.28;49.03
74716;BME280;63234;37.558;127.058;2022-10-01T11:45:31;101591.91;;;22.23;49.25
74716;BME280;63234;37.558;127.058;2022-10-01T11:48:05;101593.72;;;22.12;50.04
74716;BME280;63234;37.558;127.058;2022-10-01T11:50:45;101590.47;;;22.10;50.51
74716;BME280;63234;37.558;127.058;2022-10-01T11:53:33;101579.13;;;22.13;49.92
74716;BME280;63234;37.558;127.058;2022-10-01T11:56:07;101581.31;;;22.16;50.64
74716;BME280;63234;37.558;127.058;2022-10-01T12:04:29;101588.69;;;21.84;51.58
74716;BME280;63234;37.558;127.058;2022-10-01T12:12:41;101583.94;;;22.01;51.31
74716;BME280;63234;37.558;127.058;2022-10-01T12:15:16;101578.28;;;22.08;53.13
74716;BME280;63234;37.558;127.058;2022-10-01T12:18:40;101577.47;;;22.07;54.08
74716;BME280;63234;37.558;127.058;2022-10-01T12:20:51;101582.28;;;22.00;54.28
74716;BME280;63234;37.558;127.058;2022-10-01T12:23:27;101580.63;;;21.94;54.84
74716;BME280;63234;37.558;127.058;2022-10-01T12:26:06;101584.13;;;21.89;55.02
74716;BME280;63234;37.558;127.058;2022-10-01T12:32:00;101581.53;;;21.67;55.42
74716;BME280;63234;37.558;127.058;2022-10-01T12:34:55;101586.63;;;21.59;55.91
74716;BME280;63234;37.558;127.058;2022-10-01T12:46:26;101587.66;;;21.90;55.46
74716;BME280;63234;37.558;127.058;2022-10-01T12:49:10;101587.16;;;21.98;54.89
74716;BME280;63234;37.558;127.058;2022-10-01T12:51:46;101582.78;;;21.97;54.84
74716;BME280;63234;37.558;127.058;2022-10-01T12:57:04;101585.25;;;21.98;55.98
74716;BME280;63234;37.558;127.058;2022-10-01T13:02:41;101571.34;;;21.85;57.49
74716;BME280;63234;37.558;127.058;2022-10-01T13:13:36;101572.81;;;21.60;58.30
74716;BME280;63234;37.558;127.058;2022-10-01T13:27:47;101568.66;;;21.15;60.18
74716;BME280;63234;37.558;127.058;2022-10-01T13:30:21;101565.44;;;21.18;60.31
74716;BME280;63234;37.558;127.058;2022-10-01T13:35:32;101572.97;;;21.16;60.10
74716;BME280;63234;37.558;127.058;2022-10-01T13:38:12;101576.78;;;21.15;60.20
74716;BME280;63234;37.558;127.058;2022-10-01T13:40:40;101582.34;;;21.03;61.39
74716;BME280;63234;37.558;127.058;2022-10-01T13:43:20;101573.50;;;21.13;60.72
74716;BME280;63234;37.558;127.058;2022-10-01T13:45:51;101576.72;;;21.10;60.74
74716;BME280;63234;37.558;127.058;2022-10-01T13:48:27;101568.16;;;21.18;60.10
74716;BME280;63234;37.558;127.058;2022-10-01T13:51:08;101575.94;;;21.15;60.50
74716;BME280;63234;37.558;127.058;2022-10-01T13:56:13;101573.34;;;21.30;59.49
74716;BME280;63234;37.558;127.058;2022-10-01T13:58:42;101573.78;;;21.17;59.32
74716;BME280;63234;37.558;127.058;2022-10-01T14:06:58;101600.78;;;20.84;60.00
74716;BME280;63234;37.558;127.058;2022-10-01T14:09:35;101594.81;;;20.82;60.07
74716;BME280;63234;37.558;127.058;2022-10-01T14:12:18;101598.78;;;20.75;60.22
74716;BME280;63234;37.558;127.058;2022-10-01T14:15:44;101603.38;;;20.74;60.02
74716;BME280;63234;37.558;127.058;2022-10-01T14:18:37;101597.78;;;20.59;61.62
74716;BME280;63234;37.558;127.058;2022-10-01T14:21:27;101607.06;;;20.46;63.79
74716;BME280;63234;37.558;127.058;2022-10-01T14:29:33;101606.97;;;20.19;62.84
74716;BME280;63234;37.558;127.058;2022-10-01T14:32:41;101592.56;;;20.30;61.91
74716;BME280;63234;37.558;127.058;2022-10-01T14:38:00;101605.38;;;20.40;61.48
74716;BME280;63234;37.558;127.058;2022-10-01T14:40:37;101598.09;;;20.40;61.69
74716;BME280;63234;37.558;127.058;2022-10-01T14:43:25;101601.22;;;20.32;62.22
74716;BME280;63234;37.558;127.058;2022-10-01T14:46:04;101599.16;;;20.39;62.06
74716;BME280;63234;37.558;127.058;2022-10-01T14:48:33;101591.56;;;20.36;62.07
74716;BME280;63234;37.558;127.058;2022-10-01T14:51:20;101586.47;;;20.40;62.13
74716;BME280;63234;37.558;127.058;2022-10-01T14:53:47;101584.94;;;20.27;62.02
74716;BME280;63234;37.558;127.058;2022-10-01T14:56:16;101582.81;;;20.29;62.33
74716;BME280;63234;37.558;127.058;2022-10-01T14:58:43;101572.59;;;20.14;62.45
74716;BME280;63234;37.558;127.058;2022-10-01T15:01:19;101580.97;;;20.13;61.78
74716;BME280;63234;37.558;127.058;2022-10-01T15:03:48;101575.06;;;20.16;61.55
74716;BME280;63234;37.558;127.058;2022-10-01T15:06:18;101577.66;;;20.06;62.20
74716;BME280;63234;37.558;127.058;2022-10-01T15:08:48;101560.75;;;19.93;63.00
74716;BME280;63234;37.558;127.058;2022-10-01T15:11:24;101566.25;;;19.82;64.13
74716;BME280;63234;37.558;127.058;2022-10-01T15:13:54;101566.47;;;19.80;64.45
74716;BME280;63234;37.558;127.058;2022-10-01T15:16:24;101558.13;;;19.82;64.48
74716;BME280;63234;37.558;127.058;2022-10-01T15:19:06;101558.81;;;19.72;65.05
74716;BME280;63234;37.558;127.058;2022-10-01T15:24:05;101561.06;;;19.80;65.38
74716;BME280;63234;37.558;127.058;2022-10-01T15:26:33;101557.47;;;19.58;66.11